createdAt,value
2023-05-14T00:02:07.799Z,100.00
2023-05-14T00:04:35.546Z,100.00
2023-05-14T00:07:04.470Z,100.00
2023-05-14T00:09:32.803Z,100.00
2023-05-14T00:12:00.321Z,100.00
2023-05-14T00:14:27.803Z,100.00
2023-05-14T00:16:55.356Z,100.00
2023-05-14T00:19:22.912Z,100.00
2023-05-14T00:21:50.523Z,100.00
2023-05-14T00:24:19.396Z,100.00
2023-05-14T00:26:46.912Z,100.00
2023-05-14T00:29:14.399Z,100.00
2023-05-14T00:31:42.447Z,100.00
2023-05-14T00:34:10.046Z,100.00
2023-05-14T00:36:37.897Z,100.00
2023-05-14T00:39:05.481Z,100.00
2023-05-14T00:41:34.353Z,100.00
2023-05-14T00:44:01.887Z,100.00
2023-05-14T00:46:29.656Z,100.00
2023-05-14T00:48:57.232Z,100.00
2023-05-14T00:51:24.781Z,100.00
2023-05-14T00:53:52.926Z,100.00
2023-05-14T00:56:21.324Z,100.00
2023-05-14T00:58:50.213Z,100.00
2023-05-14T01:01:18.113Z,100.00
2023-05-14T01:03:46.037Z,100.00
2023-05-14T01:06:16.997Z,100.00
2023-05-14T01:08:51.808Z,100.00
2023-05-14T01:11:22.563Z,100.00
2023-05-14T01:13:59.844Z,100.00
2023-05-14T01:16:28.835Z,100.00
2023-05-14T01:18:57.822Z,100.00
2023-05-14T01:21:35.197Z,100.00
2023-05-14T01:24:03.099Z,100.00
2023-05-14T01:26:31.396Z,100.00
2023-05-14T01:29:02.821Z,100.00
2023-05-14T01:31:32.624Z,100.00
2023-05-14T01:34:00.588Z,100.00
2023-05-14T01:36:30.951Z,100.00
2023-05-14T01:38:58.662Z,100.00
2023-05-14T01:41:27.243Z,100.00
2023-05-14T01:43:54.877Z,100.00
2023-05-14T01:46:24.172Z,100.00
2023-05-14T01:48:51.883Z,100.00
2023-05-14T01:51:19.382Z,100.00
2023-05-14T01:53:48.218Z,100.00
2023-05-14T01:56:15.752Z,100.00
2023-05-14T01:58:43.275Z,100.00
2023-05-14T02:01:10.813Z,100.00
2023-05-14T02:03:38.376Z,100.00
2023-05-14T02:06:06.146Z,100.00
2023-05-14T02:08:33.615Z,100.00
2023-05-14T02:11:02.465Z,100.00
2023-05-14T02:13:29.982Z,100.00
2023-05-14T02:15:57.570Z,100.00
2023-05-14T02:18:25.290Z,100.00
2023-05-14T02:20:52.809Z,100.00
2023-05-14T02:23:25.643Z,100.00
2023-05-14T02:25:58.748Z,100.00
2023-05-14T02:28:27.571Z,100.00
2023-05-14T02:30:59.651Z,100.00
2023-05-14T02:33:27.223Z,100.00
2023-05-14T02:35:54.865Z,100.00
2023-05-14T02:38:22.424Z,100.00
2023-05-14T02:40:49.991Z,100.00
2023-05-14T02:43:17.604Z,100.00
2023-05-14T02:45:46.423Z,100.00
2023-05-14T02:48:14.152Z,100.00
2023-05-14T02:50:41.692Z,100.00
2023-05-14T02:53:09.210Z,100.00
2023-05-14T02:55:37.352Z,100.00
2023-05-14T02:58:04.864Z,100.00
2023-05-14T03:00:32.421Z,100.00
2023-05-14T03:03:01.697Z,100.00
2023-05-14T03:05:29.807Z,100.00
2023-05-14T03:07:57.352Z,100.00
2023-05-14T03:10:25.208Z,100.00
2023-05-14T03:12:52.892Z,100.00
2023-05-14T03:15:20.651Z,100.00
2023-05-14T03:17:48.167Z,100.00
2023-05-14T03:20:17.215Z,100.00
2023-05-14T03:22:44.799Z,100.00
2023-05-14T03:25:12.352Z,100.00
2023-05-14T03:27:39.839Z,100.00
2023-05-14T03:30:08.649Z,100.00
2023-05-14T03:32:37.405Z,100.00
2023-05-14T03:35:05.522Z,100.00
2023-05-14T03:37:34.449Z,100.00
2023-05-14T03:40:01.987Z,100.00
2023-05-14T03:42:29.556Z,100.00
2023-05-14T03:44:57.033Z,100.00
2023-05-14T03:47:24.606Z,100.00
2023-05-14T03:49:52.237Z,100.00
2023-05-14T03:52:19.898Z,100.00
2023-05-14T03:54:49.019Z,100.00
2023-05-14T03:57:16.520Z,100.00
2023-05-14T03:59:44.016Z,100.00
2023-05-14T04:02:11.568Z,100.00
2023-05-14T04:04:39.132Z,100.00
2023-05-14T04:07:06.835Z,100.00
2023-05-14T04:09:34.367Z,100.00
2023-05-14T04:12:03.381Z,100.00
2023-05-14T04:14:30.854Z,100.00
2023-05-14T04:17:00.173Z,100.00
2023-05-14T04:19:27.911Z,100.00
2023-05-14T04:21:55.441Z,100.00
2023-05-14T04:24:22.977Z,100.00
2023-05-14T04:26:50.465Z,100.00
2023-05-14T04:29:19.329Z,100.00
2023-05-14T04:31:47.051Z,100.00
2023-05-14T04:34:14.584Z,100.00
2023-05-14T04:36:42.170Z,100.00
2023-05-14T04:39:12.264Z,100.00
2023-05-14T04:41:39.932Z,100.00
2023-05-14T04:44:08.092Z,100.00
2023-05-14T04:46:37.250Z,100.00
2023-05-14T04:49:05.103Z,100.00
2023-05-14T04:51:32.609Z,100.00
2023-05-14T04:54:00.236Z,100.00
2023-05-14T04:56:28.119Z,100.00
2023-05-14T04:58:55.699Z,100.00
2023-05-14T05:01:23.489Z,100.00
2023-05-14T05:03:52.524Z,100.00
2023-05-14T05:06:20.279Z,100.00
2023-05-14T05:08:47.828Z,100.00
2023-05-14T05:11:15.341Z,100.00
2023-05-14T05:13:42.883Z,100.00
2023-05-14T05:16:10.470Z,100.00
2023-05-14T05:18:39.095Z,100.00
2023-05-14T05:21:08.096Z,100.00
2023-05-14T05:23:35.978Z,100.00
2023-05-14T05:26:03.620Z,100.00
2023-05-14T05:28:31.197Z,100.00
2023-05-14T05:30:58.748Z,100.00
2023-05-14T05:33:26.437Z,100.00
2023-05-14T05:35:53.925Z,100.00
2023-05-14T05:38:22.745Z,100.00
2023-05-14T05:40:50.338Z,100.00
2023-05-14T05:43:17.991Z,100.00
2023-05-14T05:45:46.466Z,100.00
2023-05-14T05:48:13.953Z,100.00
2023-05-14T05:50:41.661Z,100.00
2023-05-14T05:53:09.120Z,100.00
2023-05-14T05:55:37.983Z,100.00
2023-05-14T05:58:05.717Z,100.00
2023-05-14T06:00:33.338Z,100.00
2023-05-14T06:03:01.055Z,100.00
2023-05-14T06:05:28.718Z,100.00
2023-05-14T06:07:56.243Z,100.00
2023-05-14T06:10:24.450Z,100.00
2023-05-14T06:12:53.524Z,100.00
2023-05-14T06:15:21.785Z,100.00
2023-05-14T06:17:49.373Z,100.00
2023-05-14T06:20:17.158Z,100.00
2023-05-14T06:22:44.757Z,100.00
2023-05-14T06:25:12.571Z,100.00
2023-05-14T06:27:40.059Z,100.00
2023-05-14T06:30:10.406Z,100.00
2023-05-14T06:32:37.978Z,100.00
2023-05-14T06:35:06.214Z,100.00
2023-05-14T06:37:33.892Z,100.00
2023-05-14T06:40:01.654Z,100.00
2023-05-14T06:42:29.176Z,100.00
2023-05-14T06:44:56.713Z,100.00
2023-05-14T06:47:26.840Z,100.00
2023-05-14T06:49:55.719Z,100.00
2023-05-14T06:52:23.229Z,100.00
2023-05-14T06:54:50.720Z,100.00
2023-05-14T06:57:18.236Z,100.00
2023-05-14T06:59:45.757Z,100.00
2023-05-14T07:02:13.660Z,100.00
2023-05-14T07:04:42.617Z,100.00
2023-05-14T07:07:15.325Z,100.00
2023-05-14T07:09:43.054Z,100.00
2023-05-14T07:12:10.629Z,100.00
2023-05-14T07:14:38.316Z,100.00
2023-05-14T07:17:05.925Z,100.00
2023-05-14T07:19:33.439Z,100.00
2023-05-14T07:22:02.289Z,100.00
2023-05-14T07:24:29.796Z,100.00
2023-05-14T07:26:58.107Z,100.00
2023-05-14T07:29:26.094Z,100.00
2023-05-14T07:31:53.660Z,100.00
2023-05-14T07:34:21.243Z,100.00
2023-05-14T07:36:48.847Z,100.00
2023-05-14T07:39:17.731Z,100.00
2023-05-14T07:41:45.274Z,100.00
2023-05-14T07:44:13.031Z,100.00
2023-05-14T07:46:40.987Z,100.00
2023-05-14T07:49:08.495Z,100.00
2023-05-14T07:51:36.012Z,100.00
2023-05-14T07:54:03.526Z,100.00
2023-05-14T07:56:32.465Z,100.00
2023-05-14T07:58:59.975Z,100.00
2023-05-14T08:01:27.625Z,100.00
2023-05-14T08:03:55.176Z,100.00
2023-05-14T08:06:23.689Z,100.00
2023-05-14T08:08:51.211Z,100.00
2023-05-14T08:11:18.876Z,100.00
2023-05-14T08:13:47.757Z,100.00
2023-05-14T08:16:15.322Z,100.00
2023-05-14T08:18:43.625Z,100.00
2023-05-14T08:21:11.150Z,100.00
2023-05-14T08:23:38.665Z,100.00
2023-05-14T08:26:06.629Z,100.00
2023-05-14T08:28:34.141Z,100.00
2023-05-14T08:31:03.048Z,100.00
2023-05-14T08:33:30.621Z,100.00
2023-05-14T08:36:00.417Z,100.00
2023-05-14T08:38:27.983Z,100.00
2023-05-14T08:40:58.506Z,100.00
2023-05-14T08:43:27.725Z,100.00
2023-05-14T08:45:59.468Z,100.00
2023-05-14T08:48:30.628Z,100.00
2023-05-14T08:50:58.747Z,99.77
2023-05-14T08:53:26.439Z,96.47
2023-05-14T08:55:54.881Z,100.00
2023-05-14T08:58:22.414Z,100.00
2023-05-14T09:00:50.089Z,99.04
2023-05-14T09:03:18.413Z,98.83
2023-05-14T09:05:48.688Z,99.63
2023-05-14T09:08:16.280Z,98.15
2023-05-14T09:10:43.864Z,99.35
2023-05-14T09:13:11.467Z,98.66
2023-05-14T09:15:41.318Z,93.43
2023-05-14T09:18:09.011Z,92.56
2023-05-14T09:20:36.779Z,89.45
2023-05-14T09:23:05.924Z,90.27
2023-05-14T09:25:33.791Z,89.88
2023-05-14T09:28:01.344Z,90.35
2023-05-14T09:30:28.900Z,87.19
2023-05-14T09:32:56.545Z,87.46
2023-05-14T09:35:25.458Z,84.38
2023-05-14T09:37:54.297Z,84.27
2023-05-14T09:40:25.118Z,88.60
2023-05-14T09:42:52.971Z,87.93
2023-05-14T09:45:20.552Z,85.74
2023-05-14T09:47:48.239Z,86.47
2023-05-14T09:50:16.043Z,82.20
2023-05-14T09:52:43.595Z,83.00
2023-05-14T09:55:11.171Z,86.71
2023-05-14T09:57:40.699Z,83.80
2023-05-14T10:00:10.255Z,83.38
2023-05-14T10:02:40.568Z,79.61
2023-05-14T10:05:09.360Z,77.48
2023-05-14T10:07:41.757Z,80.80
2023-05-14T10:10:13.297Z,75.37
2023-05-14T10:12:42.445Z,78.72
2023-05-14T10:15:14.825Z,83.11
2023-05-14T10:17:45.728Z,86.70
2023-05-14T10:20:16.519Z,85.95
2023-05-14T10:22:44.114Z,82.28
2023-05-14T10:25:12.292Z,85.42
2023-05-14T10:27:41.811Z,87.14
2023-05-14T10:30:12.932Z,84.25
2023-05-14T10:32:41.922Z,84.20
2023-05-14T10:35:20.622Z,78.91
2023-05-14T10:37:48.375Z,81.85
2023-05-14T10:40:15.999Z,80.23
2023-05-14T10:42:45.216Z,77.95
2023-05-14T10:45:14.219Z,81.31
2023-05-14T10:47:44.067Z,76.41
2023-05-14T10:50:13.482Z,83.43
2023-05-14T10:52:43.316Z,85.78
2023-05-14T10:55:14.072Z,88.94
2023-05-14T10:57:43.906Z,76.22
2023-05-14T11:00:14.944Z,73.92
2023-05-14T11:02:44.544Z,68.37
2023-05-14T11:05:15.617Z,76.40
2023-05-14T11:07:44.914Z,78.78
2023-05-14T11:10:13.606Z,78.01
2023-05-14T11:12:42.636Z,78.41
2023-05-14T11:15:11.538Z,76.94
2023-05-14T11:17:42.426Z,82.18
2023-05-14T11:20:11.397Z,72.92
2023-05-14T11:22:40.354Z,67.99
2023-05-14T11:25:09.461Z,69.65
2023-05-14T11:27:38.554Z,71.93
2023-05-14T11:30:12.860Z,70.10
2023-05-14T11:32:41.957Z,66.44
2023-05-14T11:35:10.138Z,67.75
2023-05-14T11:37:37.692Z,63.61
2023-05-14T11:40:10.772Z,64.77
2023-05-14T11:42:38.339Z,67.25
2023-05-14T11:45:07.092Z,69.21
2023-05-14T11:47:34.645Z,72.10
2023-05-14T11:50:03.491Z,74.90
2023-05-14T11:52:31.176Z,78.19
2023-05-14T11:54:58.712Z,78.43
2023-05-14T11:57:26.831Z,77.97
2023-05-14T11:59:57.577Z,74.24
2023-05-14T12:02:29.007Z,77.96
2023-05-14T12:04:56.631Z,80.32
2023-05-14T12:07:29.996Z,77.74
2023-05-14T12:10:01.995Z,79.24
2023-05-14T12:12:36.224Z,77.80
2023-05-14T12:15:03.967Z,75.83
2023-05-14T12:17:31.560Z,74.69
2023-05-14T12:19:59.319Z,76.56
2023-05-14T12:22:30.611Z,74.29
2023-05-14T12:24:59.033Z,69.17
2023-05-14T12:27:27.567Z,69.29
2023-05-14T12:30:09.114Z,72.91
2023-05-14T12:32:48.933Z,73.05
2023-05-14T12:35:16.631Z,73.63
2023-05-14T12:37:45.510Z,75.65
2023-05-14T12:40:13.545Z,80.29
2023-05-14T12:42:41.106Z,82.49
2023-05-14T12:45:09.197Z,81.59
2023-05-14T12:47:37.382Z,88.22
2023-05-14T12:50:05.798Z,90.83
2023-05-14T12:52:38.752Z,96.15
2023-05-14T12:55:10.030Z,94.91
2023-05-14T12:57:38.836Z,97.74
2023-05-14T13:00:08.501Z,100.00
2023-05-14T13:02:42.349Z,98.70
2023-05-14T13:05:11.292Z,99.29
2023-05-14T13:07:39.006Z,100.00
2023-05-14T13:10:09.293Z,100.00
2023-05-14T13:12:36.854Z,100.00
2023-05-14T13:15:04.752Z,100.00
2023-05-14T13:17:32.641Z,100.00
2023-05-14T13:20:00.218Z,100.00
2023-05-14T13:22:27.915Z,98.75
2023-05-14T13:24:55.402Z,94.27
2023-05-14T13:27:24.297Z,92.77
2023-05-14T13:29:52.009Z,91.23
2023-05-14T13:32:19.529Z,96.07
2023-05-14T13:34:47.257Z,92.90
2023-05-14T13:37:14.896Z,91.74
2023-05-14T13:39:42.431Z,90.53
2023-05-14T13:42:09.989Z,88.76
2023-05-14T13:44:39.131Z,87.71
2023-05-14T13:47:07.164Z,87.47
2023-05-14T13:49:34.700Z,89.74
2023-05-14T13:52:02.223Z,95.41
2023-05-14T13:54:29.756Z,91.63
2023-05-14T13:56:57.309Z,95.98
2023-05-14T13:59:24.874Z,94.37
2023-05-14T14:01:53.764Z,97.48
2023-05-14T14:04:22.123Z,100.00
2023-05-14T14:06:49.923Z,100.00
2023-05-14T14:09:17.517Z,100.00
2023-05-14T14:11:45.069Z,100.00
2023-05-14T14:14:13.492Z,100.00
2023-05-14T14:16:41.224Z,100.00
2023-05-14T14:19:10.294Z,100.00
2023-05-14T14:21:39.671Z,100.00
2023-05-14T14:24:07.626Z,100.00
2023-05-14T14:26:35.156Z,100.00
2023-05-14T14:29:02.671Z,100.00
2023-05-14T14:31:30.201Z,100.00
2023-05-14T14:33:57.760Z,100.00
2023-05-14T14:36:26.679Z,100.00
2023-05-14T14:38:54.241Z,100.00
2023-05-14T14:41:22.326Z,100.00
2023-05-14T14:43:50.227Z,100.00
2023-05-14T14:46:17.841Z,100.00
2023-05-14T14:48:45.812Z,100.00
2023-05-14T14:51:13.369Z,100.00
2023-05-14T14:53:42.344Z,100.00
2023-05-14T14:56:09.930Z,100.00
2023-05-14T14:58:37.480Z,100.00
2023-05-14T15:01:05.333Z,100.00
2023-05-14T15:03:33.023Z,100.00
2023-05-14T15:06:00.703Z,100.00
2023-05-14T15:08:29.065Z,100.00
2023-05-14T15:10:59.253Z,100.00
2023-05-14T15:13:27.026Z,100.00
2023-05-14T15:15:54.665Z,100.00
2023-05-14T15:18:22.161Z,100.00
2023-05-14T15:20:50.018Z,100.00
2023-05-14T15:23:17.630Z,100.00
2023-05-14T15:25:45.436Z,100.00
2023-05-14T15:28:14.320Z,100.00
2023-05-14T15:30:41.849Z,100.00
2023-05-14T15:33:09.521Z,100.00
2023-05-14T15:35:37.513Z,100.00
2023-05-14T15:38:05.174Z,100.00
2023-05-14T15:40:34.850Z,100.00
2023-05-14T15:43:02.787Z,100.00
2023-05-14T15:45:31.614Z,100.00
2023-05-14T15:47:59.192Z,100.00
2023-05-14T15:50:27.340Z,100.00
2023-05-14T15:52:54.997Z,100.00
2023-05-14T15:55:22.695Z,100.00
2023-05-14T15:57:50.214Z,100.00
2023-05-14T16:00:18.610Z,100.00
2023-05-14T16:02:47.632Z,100.00
2023-05-14T16:05:15.524Z,100.00
2023-05-14T16:07:43.326Z,100.00
2023-05-14T16:10:11.664Z,100.00
2023-05-14T16:12:39.183Z,100.00
2023-05-14T16:15:08.396Z,100.00
2023-05-14T16:17:36.378Z,100.00
2023-05-14T16:20:06.142Z,100.00
2023-05-14T16:22:34.703Z,100.00
2023-05-14T16:25:03.507Z,100.00
2023-05-14T16:27:31.530Z,100.00
2023-05-14T16:29:59.117Z,100.00
2023-05-14T16:32:26.700Z,100.00
2023-05-14T16:34:56.445Z,100.00
2023-05-14T16:37:25.864Z,100.00
2023-05-14T16:39:53.451Z,100.00
2023-05-14T16:42:21.294Z,100.00
2023-05-14T16:44:48.838Z,100.00
2023-05-14T16:47:16.432Z,100.00
2023-05-14T16:49:44.299Z,100.00
2023-05-14T16:52:11.840Z,100.00
2023-05-14T16:54:40.653Z,100.00
2023-05-14T16:57:08.189Z,100.00
2023-05-14T16:59:36.070Z,100.00
2023-05-14T17:02:03.708Z,100.00
2023-05-14T17:04:33.260Z,100.00
2023-05-14T17:07:01.503Z,100.00
2023-05-14T17:09:29.072Z,100.00
2023-05-14T17:11:57.983Z,100.00
2023-05-14T17:14:25.664Z,100.00
2023-05-14T17:16:53.228Z,100.00
2023-05-14T17:19:20.761Z,100.00
2023-05-14T17:21:48.293Z,100.00
2023-05-14T17:24:16.367Z,100.00
2023-05-14T17:26:43.925Z,100.00
2023-05-14T17:29:12.926Z,100.00
2023-05-14T17:31:40.508Z,100.00
2023-05-14T17:34:08.103Z,100.00
2023-05-14T17:36:35.607Z,100.00
2023-05-14T17:39:03.156Z,100.00
2023-05-14T17:41:30.814Z,100.00
2023-05-14T17:43:58.653Z,100.00
2023-05-14T17:46:27.558Z,100.00
2023-05-14T17:48:55.092Z,100.00
2023-05-14T17:51:22.651Z,100.00
2023-05-14T17:53:50.819Z,100.00
2023-05-14T17:56:18.575Z,100.00
2023-05-14T17:58:46.436Z,100.00
2023-05-14T18:01:14.056Z,100.00
2023-05-14T18:03:43.373Z,100.00
2023-05-14T18:06:11.061Z,100.00
2023-05-14T18:08:38.611Z,100.00
2023-05-14T18:11:06.168Z,100.00
2023-05-14T18:13:33.922Z,100.00
2023-05-14T18:16:01.599Z,100.00
2023-05-14T18:18:29.175Z,100.00
2023-05-14T18:20:58.101Z,100.00
2023-05-14T18:23:25.692Z,100.00
2023-05-14T18:25:53.226Z,100.00
2023-05-14T18:28:21.417Z,100.00
2023-05-14T18:30:49.949Z,100.00
2023-05-14T18:33:17.640Z,100.00
2023-05-14T18:35:45.325Z,100.00
2023-05-14T18:38:14.241Z,100.00
2023-05-14T18:40:41.812Z,100.00
2023-05-14T18:43:09.608Z,100.00
2023-05-14T18:45:37.440Z,100.00
2023-05-14T18:48:06.037Z,100.00
2023-05-14T18:50:33.788Z,100.00
2023-05-14T18:53:01.377Z,100.00
2023-05-14T18:55:30.311Z,100.00
2023-05-14T18:57:57.976Z,100.00
2023-05-14T19:00:25.581Z,100.00
2023-05-14T19:02:53.232Z,100.00
2023-05-14T19:05:20.954Z,100.00
2023-05-14T19:07:49.301Z,100.00
2023-05-14T19:10:16.859Z,100.00
2023-05-14T19:12:47.136Z,100.00
2023-05-14T19:15:14.714Z,100.00
2023-05-14T19:17:42.539Z,100.00
2023-05-14T19:20:11.814Z,100.00
2023-05-14T19:22:39.454Z,100.00
2023-05-14T19:25:08.462Z,100.00
2023-05-14T19:27:37.745Z,100.00
2023-05-14T19:30:08.020Z,100.00
2023-05-14T19:32:37.648Z,100.00
2023-05-14T19:35:06.051Z,100.00
2023-05-14T19:37:34.207Z,100.00
2023-05-14T19:40:01.791Z,100.00
2023-05-14T19:42:29.378Z,100.00
2023-05-14T19:44:56.943Z,100.00
2023-05-14T19:47:25.928Z,100.00
2023-05-14T19:49:53.543Z,100.00
2023-05-14T19:52:21.155Z,100.00
2023-05-14T19:54:48.695Z,100.00
2023-05-14T19:57:16.248Z,100.00
2023-05-14T19:59:44.360Z,100.00
2023-05-14T20:02:18.268Z,100.00
2023-05-14T20:04:47.464Z,100.00
2023-05-14T20:07:15.717Z,100.00
2023-05-14T20:09:43.446Z,100.00
2023-05-14T20:12:12.834Z,100.00
2023-05-14T20:14:41.037Z,100.00
2023-05-14T20:17:08.705Z,100.00
2023-05-14T20:19:36.301Z,100.00
2023-05-14T20:22:05.556Z,100.00
2023-05-14T20:24:33.083Z,100.00
2023-05-14T20:27:00.611Z,100.00
2023-05-14T20:29:28.170Z,100.00
2023-05-14T20:31:55.763Z,100.00
2023-05-14T20:34:23.334Z,100.00
2023-05-14T20:36:51.845Z,100.00
2023-05-14T20:39:21.120Z,100.00
2023-05-14T20:41:48.696Z,100.00
2023-05-14T20:44:16.780Z,100.00
2023-05-14T20:46:45.580Z,100.00
2023-05-14T20:49:13.666Z,100.00
2023-05-14T20:51:41.225Z,100.00
2023-05-14T20:54:08.781Z,100.00
2023-05-14T20:56:37.704Z,100.00
2023-05-14T20:59:05.215Z,100.00
2023-05-14T21:01:32.824Z,100.00
2023-05-14T21:04:00.523Z,100.00
2023-05-14T21:06:28.293Z,100.00
2023-05-14T21:08:55.813Z,100.00
2023-05-14T21:11:23.946Z,100.00
2023-05-14T21:13:52.821Z,100.00
2023-05-14T21:16:20.658Z,100.00
2023-05-14T21:18:48.345Z,100.00
2023-05-14T21:21:15.953Z,100.00
2023-05-14T21:23:43.693Z,100.00
2023-05-14T21:26:11.407Z,100.00
2023-05-14T21:28:38.972Z,100.00
2023-05-14T21:31:07.893Z,100.00
2023-05-14T21:33:35.479Z,100.00
2023-05-14T21:36:03.043Z,100.00
2023-05-14T21:38:31.662Z,100.00
2023-05-14T21:40:59.524Z,100.00
2023-05-14T21:43:27.571Z,100.00
2023-05-14T21:45:55.143Z,100.00
2023-05-14T21:48:24.160Z,100.00
2023-05-14T21:50:51.818Z,100.00
2023-05-14T21:53:19.374Z,100.00
2023-05-14T21:55:47.207Z,100.00
2023-05-14T21:58:14.860Z,100.00
2023-05-14T22:00:42.385Z,100.00
2023-05-14T22:03:10.057Z,100.00
2023-05-14T22:05:39.305Z,100.00
2023-05-14T22:08:07.246Z,100.00
2023-05-14T22:10:35.663Z,100.00
2023-05-14T22:13:03.241Z,100.00
2023-05-14T22:15:30.798Z,100.00
2023-05-14T22:17:58.396Z,100.00
2023-05-14T22:20:26.023Z,100.00
2023-05-14T22:22:54.896Z,100.00
2023-05-14T22:25:22.927Z,100.00
2023-05-14T22:27:50.704Z,100.00
2023-05-14T22:30:18.299Z,100.00
2023-05-14T22:32:45.952Z,100.00
2023-05-14T22:35:13.552Z,100.00
2023-05-14T22:37:41.077Z,100.00
2023-05-14T22:40:11.039Z,100.00
2023-05-14T22:42:38.647Z,100.00
2023-05-14T22:45:08.036Z,100.00
2023-05-14T22:47:35.613Z,100.00
2023-05-14T22:50:03.421Z,100.00
2023-05-14T22:52:30.925Z,100.00
2023-05-14T22:54:58.515Z,100.00
2023-05-14T22:57:27.446Z,100.00
2023-05-14T22:59:55.027Z,100.00
2023-05-14T23:02:22.574Z,100.00
2023-05-14T23:04:50.256Z,100.00
2023-05-14T23:07:17.866Z,100.00
2023-05-14T23:09:45.530Z,100.00
2023-05-14T23:12:13.056Z,100.00
2023-05-14T23:14:42.498Z,100.00
2023-05-14T23:17:10.103Z,100.00
2023-05-14T23:19:37.872Z,100.00
2023-05-14T23:22:05.894Z,100.00
2023-05-14T23:24:33.406Z,100.00
2023-05-14T23:27:01.037Z,100.00
2023-05-14T23:29:28.585Z,100.00
2023-05-14T23:31:57.605Z,100.00
2023-05-14T23:34:25.260Z,100.00
2023-05-14T23:36:52.952Z,100.00
2023-05-14T23:39:20.868Z,100.00
2023-05-14T23:41:48.371Z,100.00
2023-05-14T23:44:16.122Z,100.00
2023-05-14T23:46:44.825Z,100.00
2023-05-14T23:49:13.965Z,100.00
2023-05-14T23:51:41.478Z,100.00
2023-05-14T23:54:09.060Z,100.00
2023-05-14T23:56:36.589Z,100.00
2023-05-14T23:59:04.874Z,100.00
